createdAt,value
2022-10-16T00:01:30.746Z,97827.00
2022-10-16T00:04:01.122Z,97834.00
2022-10-16T00:06:33.486Z,97831.00
2022-10-16T00:09:01.733Z,97832.00
2022-10-16T00:11:37.487Z,97837.00
2022-10-16T00:14:11.132Z,97842.00
2022-10-16T00:16:39.746Z,97842.00
2022-10-16T00:19:07.847Z,97852.00
2022-10-16T00:21:35.995Z,97850.00
2022-10-16T00:24:09.674Z,97857.00
2022-10-16T00:26:40.925Z,97849.00
2022-10-16T00:29:09.508Z,97862.00
2022-10-16T00:31:37.821Z,97863.00
2022-10-16T00:34:05.620Z,97872.00
2022-10-16T00:36:33.731Z,97870.00
2022-10-16T00:39:02.167Z,97870.00
2022-10-16T00:41:31.725Z,97864.00
2022-10-16T00:44:03.673Z,97860.00
2022-10-16T00:46:43.457Z,97866.00
2022-10-16T00:49:15.198Z,97865.00
2022-10-16T00:51:45.999Z,97862.00
2022-10-16T00:54:18.385Z,97857.00
2022-10-16T00:56:48.284Z,97859.00
2022-10-16T00:59:24.604Z,97861.00
2022-10-16T01:01:52.612Z,97866.00
2022-10-16T01:04:21.471Z,97867.00
2022-10-16T01:07:00.248Z,97859.00
2022-10-16T01:09:37.575Z,97862.00
2022-10-16T01:12:16.590Z,97868.00
2022-10-16T01:14:55.935Z,97869.00
2022-10-16T01:17:31.093Z,97862.00
2022-10-16T01:20:16.475Z,97874.00
2022-10-16T01:23:07.721Z,97875.00
2022-10-16T01:25:58.483Z,97869.00
2022-10-16T01:28:36.298Z,97866.00
2022-10-16T01:31:05.214Z,97860.00
2022-10-16T01:33:42.147Z,97855.00
2022-10-16T01:36:16.331Z,97869.00
2022-10-16T01:38:49.570Z,97874.00
2022-10-16T01:41:25.844Z,97882.00
2022-10-16T01:44:03.711Z,97886.00
2022-10-16T01:46:33.918Z,97893.00
2022-10-16T01:49:04.809Z,97890.00
2022-10-16T01:51:32.688Z,97884.00
2022-10-16T01:54:03.937Z,97903.00
2022-10-16T01:56:32.892Z,97900.00
2022-10-16T01:59:08.769Z,97904.00
2022-10-16T02:01:42.571Z,97906.00
2022-10-16T02:04:16.987Z,97911.00
2022-10-16T02:06:44.937Z,97909.00
2022-10-16T02:09:13.312Z,97899.00
2022-10-16T02:11:41.091Z,97906.00
2022-10-16T02:14:10.268Z,97898.00
2022-10-16T02:16:41.636Z,97900.00
2022-10-16T02:19:10.614Z,97893.00
2022-10-16T02:21:46.520Z,97894.00
2022-10-16T02:24:27.559Z,97898.00
2022-10-16T02:27:03.080Z,97897.00
2022-10-16T02:29:34.981Z,97899.00
2022-10-16T02:32:06.243Z,97891.00
2022-10-16T02:34:36.182Z,97888.00
2022-10-16T02:37:07.687Z,97892.00
2022-10-16T02:39:36.451Z,97893.00
2022-10-16T02:42:04.532Z,97893.00
2022-10-16T02:44:33.820Z,97884.00
2022-10-16T02:47:01.646Z,97887.00
2022-10-16T02:49:29.428Z,97888.00
2022-10-16T02:51:57.148Z,97892.00
2022-10-16T02:54:24.988Z,97904.00
2022-10-16T02:56:52.827Z,97892.00
2022-10-16T02:59:20.591Z,97887.00
2022-10-16T03:01:49.660Z,97887.00
2022-10-16T03:04:17.446Z,97887.00
2022-10-16T03:06:45.161Z,97894.00
2022-10-16T03:09:12.922Z,97895.00
2022-10-16T03:11:40.668Z,97899.00
2022-10-16T03:14:08.688Z,97901.00
2022-10-16T03:16:36.432Z,97901.00
2022-10-16T03:19:05.511Z,97903.00
2022-10-16T03:21:33.295Z,97910.00
2022-10-16T03:24:01.072Z,97915.00
2022-10-16T03:26:28.825Z,97909.00
2022-10-16T03:28:56.687Z,97909.00
2022-10-16T03:31:24.490Z,97896.00
2022-10-16T03:33:52.229Z,97905.00
2022-10-16T03:36:21.292Z,97900.00
2022-10-16T03:38:49.034Z,97910.00
2022-10-16T03:41:16.871Z,97912.00
2022-10-16T03:43:44.960Z,97910.00
2022-10-16T03:46:12.702Z,97906.00
2022-10-16T03:48:40.884Z,97913.00
2022-10-16T03:51:08.693Z,97909.00
2022-10-16T03:53:37.850Z,97908.00
2022-10-16T03:56:05.976Z,97924.00
2022-10-16T03:58:33.791Z,97929.00
2022-10-16T04:01:01.581Z,97921.00
2022-10-16T04:03:29.434Z,97924.00
2022-10-16T04:05:57.572Z,97933.00
2022-10-16T04:08:25.468Z,97936.00
2022-10-16T04:10:54.566Z,97936.00
2022-10-16T04:13:22.660Z,97929.00
2022-10-16T04:15:50.405Z,97932.00
2022-10-16T04:18:18.163Z,97936.00
2022-10-16T04:20:45.883Z,97934.00
2022-10-16T04:23:13.681Z,97938.00
2022-10-16T04:25:41.439Z,97934.00
2022-10-16T04:28:10.535Z,97941.00
2022-10-16T04:30:40.464Z,97927.00
2022-10-16T04:33:08.243Z,97936.00
2022-10-16T04:35:35.976Z,97935.00
2022-10-16T04:38:03.727Z,97932.00
2022-10-16T04:40:33.774Z,97931.00
2022-10-16T04:43:01.519Z,97933.00
2022-10-16T04:45:30.728Z,97934.00
2022-10-16T04:47:59.704Z,97929.00
2022-10-16T04:50:28.359Z,97927.00
2022-10-16T04:52:56.148Z,97929.00
2022-10-16T04:55:23.896Z,97932.00
2022-10-16T04:57:51.656Z,97932.00
2022-10-16T05:00:19.538Z,97935.00
2022-10-16T05:02:48.681Z,97935.00
2022-10-16T05:05:16.788Z,97940.00
2022-10-16T05:07:44.555Z,97940.00
2022-10-16T05:10:12.296Z,97942.00
2022-10-16T05:12:40.237Z,97946.00
2022-10-16T05:15:09.524Z,97949.00
2022-10-16T05:17:41.104Z,97950.00
2022-10-16T05:20:13.370Z,97952.00
2022-10-16T05:22:41.103Z,97953.00
2022-10-16T05:25:09.270Z,97948.00
2022-10-16T05:27:37.083Z,97952.00
2022-10-16T05:30:08.566Z,97950.00
2022-10-16T05:32:37.784Z,97953.00
2022-10-16T05:35:08.746Z,97956.00
2022-10-16T05:37:40.867Z,97975.00
2022-10-16T05:40:10.481Z,97977.00
2022-10-16T05:42:38.323Z,97981.00
2022-10-16T05:45:08.322Z,97981.00
2022-10-16T05:47:36.128Z,97989.00
2022-10-16T05:50:05.095Z,97989.00
2022-10-16T05:52:32.926Z,97999.00
2022-10-16T05:55:02.054Z,98003.00
2022-10-16T05:57:29.921Z,98006.00
2022-10-16T05:59:57.845Z,97993.00
2022-10-16T06:02:25.599Z,97995.00
2022-10-16T06:04:54.605Z,97993.00
2022-10-16T06:07:22.739Z,97992.00
2022-10-16T06:09:51.629Z,97997.00
2022-10-16T06:12:21.796Z,97998.00
2022-10-16T06:14:50.068Z,98000.00
2022-10-16T06:17:17.849Z,98005.00
2022-10-16T06:19:45.777Z,98003.00
2022-10-16T06:22:13.666Z,98010.00
2022-10-16T06:24:41.417Z,98012.00
2022-10-16T06:27:09.176Z,98003.00
2022-10-16T06:29:38.293Z,98005.00
2022-10-16T06:32:06.448Z,98005.00
2022-10-16T06:34:35.250Z,98004.00
2022-10-16T06:37:03.208Z,98014.00
2022-10-16T06:39:30.941Z,98032.00
2022-10-16T06:44:31.396Z,98029.00
2022-10-16T06:47:00.494Z,98024.00
2022-10-16T06:49:29.554Z,98017.00
2022-10-16T06:51:57.436Z,98018.00
2022-10-16T06:54:25.255Z,98025.00
2022-10-16T06:56:55.064Z,98031.00
2022-10-16T06:59:23.003Z,98042.00
2022-10-16T07:01:51.083Z,98050.00
2022-10-16T07:04:20.319Z,98057.00
2022-10-16T07:06:48.043Z,98065.00
2022-10-16T07:09:15.892Z,98053.00
2022-10-16T07:11:43.612Z,98077.00
2022-10-16T07:14:18.477Z,98077.00
2022-10-16T07:16:46.350Z,98074.00
2022-10-16T07:19:15.759Z,98072.00
2022-10-16T07:21:45.472Z,98070.00
2022-10-16T07:24:15.184Z,98074.00
2022-10-16T07:26:44.709Z,98081.00
2022-10-16T07:29:16.298Z,98088.00
2022-10-16T07:31:44.976Z,98079.00
2022-10-16T07:34:14.835Z,98091.00
2022-10-16T07:36:44.028Z,98099.00
2022-10-16T07:39:11.806Z,98118.00
2022-10-16T07:41:39.539Z,98112.00
2022-10-16T07:44:07.546Z,98100.00
2022-10-16T07:46:36.805Z,98092.00
2022-10-16T07:49:04.990Z,98095.00
2022-10-16T07:51:32.903Z,98102.00
2022-10-16T07:54:02.220Z,98099.00
2022-10-16T07:56:30.033Z,98102.00
2022-10-16T07:58:57.834Z,98102.00
2022-10-16T08:01:26.636Z,98101.00
2022-10-16T08:03:55.134Z,98107.00
2022-10-16T08:06:27.663Z,98112.00
2022-10-16T08:08:56.938Z,98123.00
2022-10-16T08:11:26.219Z,98126.00
2022-10-16T08:13:54.002Z,98124.00
2022-10-16T08:16:22.057Z,98123.00
2022-10-16T08:18:52.169Z,98127.00
2022-10-16T08:21:22.360Z,98126.00
2022-10-16T08:23:54.731Z,98128.00
2022-10-16T08:26:28.452Z,98130.00
2022-10-16T08:28:57.121Z,98134.00
2022-10-16T08:31:27.092Z,98124.00
2022-10-16T08:33:55.331Z,98129.00
2022-10-16T08:36:23.110Z,98127.00
2022-10-16T08:38:54.390Z,98139.00
2022-10-16T08:42:13.125Z,98136.00
2022-10-16T08:45:17.566Z,98132.00
2022-10-16T08:47:55.374Z,98134.00
2022-10-16T08:50:28.873Z,98140.00
2022-10-16T08:52:58.959Z,98135.00
2022-10-16T08:55:43.787Z,98127.00
2022-10-16T08:58:16.988Z,98136.00
2022-10-16T09:00:49.335Z,98142.00
2022-10-16T09:03:35.487Z,98139.00
2022-10-16T09:06:27.912Z,98134.00
2022-10-16T09:09:20.211Z,98137.00
2022-10-16T09:11:58.931Z,98135.00
2022-10-16T09:14:54.913Z,98145.00
2022-10-16T09:17:39.911Z,98151.00
2022-10-16T09:20:30.791Z,98153.00
2022-10-16T09:23:17.059Z,98155.00
2022-10-16T09:25:49.726Z,98160.00
2022-10-16T09:28:18.999Z,98164.00
2022-10-16T09:30:50.813Z,98161.00
2022-10-16T09:33:22.775Z,98169.00
2022-10-16T09:35:54.547Z,98165.00
2022-10-16T09:38:30.604Z,98171.00
2022-10-16T09:41:03.683Z,98164.00
2022-10-16T09:43:41.435Z,98163.00
2022-10-16T09:46:26.200Z,98159.00
2022-10-16T09:48:57.967Z,98161.00
2022-10-16T09:51:30.456Z,98155.00
2022-10-16T09:54:02.432Z,98164.00
2022-10-16T09:56:33.381Z,98172.00
2022-10-16T09:59:02.506Z,98172.00
2022-10-16T10:01:39.511Z,98174.00
2022-10-16T10:04:08.577Z,98172.00
2022-10-16T10:06:39.815Z,98171.00
2022-10-16T10:09:19.478Z,98173.00
2022-10-16T10:11:52.357Z,98167.00
2022-10-16T10:14:25.023Z,98166.00
2022-10-16T10:17:09.998Z,98180.00
2022-10-16T10:19:42.174Z,98178.00
2022-10-16T10:22:23.780Z,98171.00
2022-10-16T10:25:17.536Z,98176.00
2022-10-16T10:28:02.460Z,98175.00
2022-10-16T10:30:42.142Z,98175.00
2022-10-16T10:33:24.447Z,98173.00
2022-10-16T10:36:05.042Z,98176.00
2022-10-16T10:38:47.654Z,98176.00
2022-10-16T10:41:38.821Z,98179.00
2022-10-16T10:44:21.891Z,98185.00
2022-10-16T10:46:58.159Z,98186.00
2022-10-16T10:50:03.947Z,98183.00
2022-10-16T10:52:45.305Z,98179.00
2022-10-16T10:55:24.966Z,98182.00
2022-10-16T10:58:35.084Z,98181.00
2022-10-16T11:01:10.416Z,98186.00
2022-10-16T11:04:00.484Z,98188.00
2022-10-16T11:06:37.652Z,98193.00
2022-10-16T11:09:17.462Z,98184.00
2022-10-16T11:11:50.975Z,98177.00
2022-10-16T11:14:24.115Z,98181.00
2022-10-16T11:16:59.855Z,98179.00
2022-10-16T11:19:41.851Z,98175.00
2022-10-16T11:22:19.625Z,98181.00
2022-10-16T11:24:55.181Z,98185.00
2022-10-16T11:27:39.379Z,98187.00
2022-10-16T11:30:20.338Z,98179.00
2022-10-16T11:32:58.733Z,98189.00
2022-10-16T11:35:39.174Z,98186.00
2022-10-16T11:38:18.922Z,98195.00
2022-10-16T11:40:54.575Z,98193.00
2022-10-16T11:43:30.671Z,98198.00
2022-10-16T11:46:07.727Z,98194.00
2022-10-16T11:48:45.024Z,98190.00
2022-10-16T11:51:21.709Z,98193.00
2022-10-16T11:53:59.628Z,98197.00
2022-10-16T11:56:28.090Z,98192.00
2022-10-16T11:59:03.837Z,98192.00
2022-10-16T12:01:40.447Z,98196.00
2022-10-16T12:04:23.307Z,98197.00
2022-10-16T12:06:57.528Z,98188.00
2022-10-16T12:09:29.619Z,98190.00
2022-10-16T12:11:58.078Z,98190.00
2022-10-16T12:14:57.666Z,98197.00
2022-10-16T12:17:37.301Z,98197.00
2022-10-16T12:20:26.513Z,98193.00
2022-10-16T12:22:57.898Z,98193.00
2022-10-16T12:25:31.853Z,98192.00
2022-10-16T12:28:03.566Z,98190.00
2022-10-16T12:30:36.032Z,98190.00
2022-10-16T12:33:07.839Z,98197.00
2022-10-16T12:35:45.289Z,98183.00
2022-10-16T12:38:28.444Z,98189.00
2022-10-16T12:41:04.806Z,98179.00
2022-10-16T12:43:43.903Z,98184.00
2022-10-16T12:46:35.705Z,98182.00
2022-10-16T12:49:31.784Z,98178.00
2022-10-16T12:52:00.054Z,98183.00
2022-10-16T12:54:32.185Z,98179.00
2022-10-16T12:57:20.646Z,98185.00
2022-10-16T13:00:01.154Z,98186.00
2022-10-16T13:03:12.625Z,98178.00
2022-10-16T13:06:01.295Z,98192.00
2022-10-16T13:08:54.442Z,98190.00
2022-10-16T13:11:32.003Z,98192.00
2022-10-16T13:14:25.521Z,98199.00
2022-10-16T13:17:08.195Z,98196.00
2022-10-16T13:19:47.064Z,98206.00
2022-10-16T13:22:25.863Z,98205.00
2022-10-16T13:25:15.245Z,98197.00
2022-10-16T13:27:52.705Z,98207.00
2022-10-16T13:30:28.335Z,98208.00
2022-10-16T13:33:05.889Z,98204.00
2022-10-16T13:35:36.889Z,98194.00
2022-10-16T13:38:16.088Z,98195.00
2022-10-16T13:40:53.553Z,98196.00
2022-10-16T13:43:25.269Z,98203.00
2022-10-16T13:46:03.854Z,98216.00
2022-10-16T13:48:39.680Z,98220.00
2022-10-16T13:51:15.183Z,98221.00
2022-10-16T13:53:44.097Z,98210.00
2022-10-16T13:56:16.463Z,98221.00
2022-10-16T13:58:45.699Z,98219.00
2022-10-16T14:01:22.259Z,98231.00
2022-10-16T14:03:51.668Z,98215.00
2022-10-16T14:06:23.681Z,98220.00
2022-10-16T14:09:00.267Z,98225.00
2022-10-16T14:11:28.630Z,98221.00
2022-10-16T14:13:57.165Z,98223.00
2022-10-16T14:16:30.926Z,98230.00
2022-10-16T14:19:02.808Z,98234.00
2022-10-16T14:21:33.020Z,98227.00
2022-10-16T14:24:00.878Z,98224.00
2022-10-16T14:26:29.851Z,98224.00
2022-10-16T14:29:13.994Z,98231.00
2022-10-16T14:31:44.316Z,98230.00
2022-10-16T14:34:31.551Z,98231.00
2022-10-16T14:37:05.631Z,98233.00
2022-10-16T14:39:33.712Z,98221.00
2022-10-16T14:42:01.801Z,98228.00
2022-10-16T14:44:34.980Z,98228.00
2022-10-16T14:47:15.563Z,98231.00
2022-10-16T14:49:44.470Z,98234.00
2022-10-16T14:52:14.234Z,98236.00
2022-10-16T14:54:42.847Z,98237.00
2022-10-16T14:57:20.708Z,98231.00
2022-10-16T14:59:52.103Z,98233.00
2022-10-16T15:02:33.170Z,98240.00
2022-10-16T15:05:14.283Z,98235.00
2022-10-16T15:07:42.774Z,98231.00
2022-10-16T15:10:11.307Z,98235.00
2022-10-16T15:12:39.111Z,98233.00
2022-10-16T15:15:35.159Z,98238.00
2022-10-16T15:18:05.054Z,98238.00
2022-10-16T15:20:35.585Z,98230.00
2022-10-16T15:23:05.399Z,98229.00
2022-10-16T15:25:41.610Z,98240.00
2022-10-16T15:28:11.237Z,98240.00
2022-10-16T15:30:40.251Z,98256.00
2022-10-16T15:33:16.612Z,98248.00
2022-10-16T15:35:44.831Z,98247.00
2022-10-16T15:38:15.004Z,98261.00
2022-10-16T15:40:43.219Z,98254.00
2022-10-16T15:43:12.530Z,98270.00
2022-10-16T15:45:40.308Z,98269.00
2022-10-16T15:48:13.388Z,98261.00
2022-10-16T15:53:15.966Z,98269.00
2022-10-16T15:55:43.746Z,98270.00
2022-10-16T15:58:11.507Z,98274.00
2022-10-16T16:00:39.446Z,98268.00
2022-10-16T16:03:07.236Z,98269.00
2022-10-16T16:05:44.108Z,98271.00
2022-10-16T16:08:14.289Z,98283.00
2022-10-16T16:10:42.034Z,98268.00
2022-10-16T16:13:09.864Z,98279.00
2022-10-16T16:15:41.019Z,98279.00
2022-10-16T16:18:10.527Z,98284.00
2022-10-16T16:20:39.921Z,98283.00
2022-10-16T16:23:07.661Z,98287.00
2022-10-16T16:25:35.442Z,98285.00
2022-10-16T16:28:03.185Z,98279.00
2022-10-16T16:30:30.998Z,98280.00
2022-10-16T16:32:58.720Z,98294.00
2022-10-16T16:35:26.615Z,98304.00
2022-10-16T16:37:55.686Z,98301.00
2022-10-16T16:40:23.430Z,98304.00
2022-10-16T16:42:51.476Z,98298.00
2022-10-16T16:45:19.275Z,98301.00
2022-10-16T16:47:47.019Z,98302.00
2022-10-16T16:50:14.895Z,98311.00
2022-10-16T16:52:42.885Z,98313.00
2022-10-16T16:55:12.246Z,98314.00
2022-10-16T16:57:40.171Z,98316.00
2022-10-16T17:00:09.938Z,98317.00
2022-10-16T17:02:37.740Z,98312.00
2022-10-16T17:05:05.928Z,98327.00
2022-10-16T17:07:35.491Z,98333.00
2022-10-16T17:10:03.938Z,98333.00
2022-10-16T17:12:33.114Z,98335.00
2022-10-16T17:15:00.982Z,98337.00
2022-10-16T17:17:29.598Z,98335.00
2022-10-16T17:19:57.655Z,98335.00
2022-10-16T17:22:25.812Z,98330.00
2022-10-16T17:24:54.815Z,98330.00
2022-10-16T17:27:23.535Z,98335.00
2022-10-16T17:29:54.795Z,98334.00
2022-10-16T17:32:23.723Z,98333.00
2022-10-16T17:34:51.873Z,98330.00
2022-10-16T17:37:19.727Z,98333.00
2022-10-16T17:39:47.817Z,98335.00
2022-10-16T17:42:15.609Z,98340.00
2022-10-16T17:44:43.363Z,98354.00
2022-10-16T17:47:12.527Z,98344.00
2022-10-16T17:49:40.291Z,98346.00
2022-10-16T17:52:08.188Z,98348.00
2022-10-16T17:54:36.025Z,98351.00
2022-10-16T17:57:03.782Z,98345.00
2022-10-16T17:59:31.586Z,98351.00
2022-10-16T18:01:59.574Z,98349.00
2022-10-16T18:04:28.854Z,98350.00
2022-10-16T18:06:56.993Z,98349.00
2022-10-16T18:09:24.986Z,98352.00
2022-10-16T18:11:59.768Z,98358.00
2022-10-16T18:14:29.932Z,98359.00
2022-10-16T18:16:58.558Z,98362.00
2022-10-16T18:19:28.774Z,98360.00
2022-10-16T18:21:56.596Z,98362.00
2022-10-16T18:24:25.891Z,98359.00
2022-10-16T18:26:57.290Z,98368.00
2022-10-16T18:29:26.902Z,98367.00
2022-10-16T18:31:54.936Z,98380.00
2022-10-16T18:34:23.049Z,98376.00
2022-10-16T18:36:54.305Z,98375.00
2022-10-16T18:39:23.755Z,98370.00
2022-10-16T18:41:55.075Z,98376.00
2022-10-16T18:44:22.833Z,98384.00
2022-10-16T18:46:52.435Z,98372.00
2022-10-16T18:49:20.222Z,98380.00
2022-10-16T18:51:48.723Z,98384.00
2022-10-16T18:54:17.863Z,98379.00
2022-10-16T18:56:45.678Z,98375.00
2022-10-16T18:59:13.465Z,98386.00
2022-10-16T19:01:43.747Z,98388.00
2022-10-16T19:04:14.277Z,98392.00
2022-10-16T19:06:45.097Z,98392.00
2022-10-16T19:09:15.028Z,98388.00
2022-10-16T19:11:44.779Z,98393.00
2022-10-16T19:14:13.677Z,98399.00
2022-10-16T19:16:43.284Z,98404.00
2022-10-16T19:19:15.144Z,98408.00
2022-10-16T19:21:43.649Z,98414.00
2022-10-16T19:24:15.915Z,98418.00
2022-10-16T19:26:45.342Z,98418.00
2022-10-16T19:29:13.629Z,98421.00
2022-10-16T19:31:42.337Z,98422.00
2022-10-16T19:34:12.523Z,98420.00
2022-10-16T19:36:41.929Z,98419.00
2022-10-16T19:39:14.744Z,98420.00
2022-10-16T19:41:43.065Z,98422.00
2022-10-16T19:44:16.271Z,98429.00
2022-10-16T19:46:46.373Z,98423.00
2022-10-16T19:49:18.098Z,98418.00
2022-10-16T19:51:49.497Z,98414.00
2022-10-16T19:54:17.678Z,98420.00
2022-10-16T19:56:45.713Z,98416.00
2022-10-16T19:59:17.261Z,98422.00
2022-10-16T20:01:45.142Z,98425.00
2022-10-16T20:04:14.422Z,98426.00
2022-10-16T20:06:42.535Z,98426.00
2022-10-16T20:09:10.391Z,98435.00
2022-10-16T20:11:38.610Z,98433.00
2022-10-16T20:14:08.668Z,98432.00
2022-10-16T20:16:37.958Z,98434.00
2022-10-16T20:19:05.826Z,98434.00
2022-10-16T20:21:35.905Z,98444.00
2022-10-16T20:24:06.618Z,98440.00
2022-10-16T20:26:34.924Z,98442.00
2022-10-16T20:29:03.253Z,98449.00
2022-10-16T20:31:33.903Z,98445.00
2022-10-16T20:34:12.153Z,98451.00
2022-10-16T20:36:43.292Z,98451.00
2022-10-16T20:39:14.075Z,98445.00
2022-10-16T20:41:42.042Z,98449.00
2022-10-16T20:44:09.917Z,98456.00
2022-10-16T20:46:37.754Z,98456.00
2022-10-16T20:49:11.637Z,98463.00
2022-10-16T20:51:45.669Z,98461.00
2022-10-16T20:54:13.693Z,98460.00
2022-10-16T20:56:42.548Z,98465.00
2022-10-16T20:59:12.311Z,98465.00
2022-10-16T21:01:41.801Z,98464.00
2022-10-16T21:04:11.299Z,98473.00
2022-10-16T21:06:40.748Z,98467.00
2022-10-16T21:09:09.355Z,98464.00
2022-10-16T21:11:38.440Z,98463.00
2022-10-16T21:14:10.346Z,98465.00
2022-10-16T21:16:38.832Z,98475.00
2022-10-16T21:19:07.234Z,98479.00
2022-10-16T21:21:39.233Z,98483.00
2022-10-16T21:24:11.956Z,98475.00
2022-10-16T21:26:43.071Z,98491.00
2022-10-16T21:29:11.256Z,98488.00
2022-10-16T21:31:39.196Z,98493.00
2022-10-16T21:34:07.309Z,98498.00
2022-10-16T21:36:39.208Z,98499.00
2022-10-16T21:39:10.935Z,98496.00
2022-10-16T21:41:39.819Z,98498.00
2022-10-16T21:44:10.113Z,98498.00
2022-10-16T21:46:41.648Z,98500.00
2022-10-16T21:49:14.046Z,98499.00
2022-10-16T21:51:45.493Z,98505.00
2022-10-16T21:54:16.091Z,98504.00
2022-10-16T21:56:43.901Z,98495.00
2022-10-16T21:59:13.890Z,98505.00
2022-10-16T22:01:42.385Z,98493.00
2022-10-16T22:04:11.563Z,98503.00
2022-10-16T22:06:39.896Z,98501.00
2022-10-16T22:09:11.808Z,98509.00
2022-10-16T22:11:39.805Z,98505.00
2022-10-16T22:14:11.940Z,98508.00
2022-10-16T22:16:41.625Z,98502.00
2022-10-16T22:19:09.876Z,98501.00
2022-10-16T22:21:40.260Z,98507.00
2022-10-16T22:24:10.537Z,98511.00
2022-10-16T22:26:39.741Z,98515.00
2022-10-16T22:29:08.566Z,98517.00
2022-10-16T22:31:36.552Z,98518.00
2022-10-16T22:34:06.360Z,98516.00
2022-10-16T22:36:35.443Z,98513.00
2022-10-16T22:39:03.821Z,98519.00
2022-10-16T22:41:33.466Z,98519.00
2022-10-16T22:44:01.175Z,98521.00
2022-10-16T22:46:31.345Z,98522.00
2022-10-16T22:48:59.276Z,98530.00
2022-10-16T22:51:28.425Z,98538.00
2022-10-16T22:53:59.222Z,98530.00
2022-10-16T22:56:27.549Z,98535.00
2022-10-16T22:58:56.685Z,98521.00
2022-10-16T23:01:27.939Z,98526.00
2022-10-16T23:03:56.117Z,98530.00
2022-10-16T23:06:23.960Z,98529.00
2022-10-16T23:08:53.194Z,98526.00
2022-10-16T23:11:21.300Z,98536.00
2022-10-16T23:13:49.610Z,98537.00
2022-10-16T23:16:21.115Z,98538.00
2022-10-16T23:18:50.290Z,98539.00
2022-10-16T23:21:21.666Z,98538.00
2022-10-16T23:23:50.302Z,98539.00
2022-10-16T23:26:21.586Z,98540.00
2022-10-16T23:28:49.848Z,98541.00
2022-10-16T23:31:20.223Z,98542.00
2022-10-16T23:33:48.005Z,98543.00
2022-10-16T23:36:18.909Z,98547.00
2022-10-16T23:38:47.084Z,98542.00
2022-10-16T23:41:15.354Z,98552.00
2022-10-16T23:43:43.357Z,98561.00
2022-10-16T23:46:13.853Z,98561.00
2022-10-16T23:48:43.195Z,98556.00
2022-10-16T23:51:11.691Z,98553.00
2022-10-16T23:53:39.720Z,98549.00
2022-10-16T23:56:08.369Z,98552.00
2022-10-16T23:58:36.351Z,98553.00
